Marion, Kentucky
Current Conditions -  °F | °C
As of 6:35 PM on Saturday 25 Oct 2014 (Local Time) from K5M9 Reporting Station
Clear Clear  
Wind Chill: 69°   Ceiling: Unl
Heat Index: 69°   Visibility: 10mi
Dew Point: 61°   Wind: 3mph
Humidity: 74%   Direction: 250°WSW
Pressure: 30.01"   Gusts: NA
Location:  37.33°N, 88.08°W
Report Text: K5M9 252335Z AUTO 25003KT 10SM CLR 21/16 A3001 RMK AO2 T02070160
Loading
Personal Weather Stations






























Interactive Weather Map
Tropical Storm Tracking
New forecast layout! Learn more

10-Day Weather Forecast

Advertisements
Track Severe Weather on mobile